Terminal Aerodrome Forecast
Issued by NWS Upton, NY

Home | Current Version | Previous Version | Text Only | Print | Product List | Glossary On
Versions: 1 2 3 4 5 6 7 8 9 10 11 12 13 14 15 16 17 18 19 20 21 22 23 24 25 26
000
FTUS41 KOKX 020500
TAFBDR
TAF
KBDR 020540Z 0206/0306 26004KT 6SM BR OVC015
      TEMPO 0206/0207 -FZRASNPL
     FM020900 28005KT P6SM SCT010 BKN025
     FM021200 30008KT P6SM SCT025 BKN050
     FM021500 30014G23KT P6SM FEW050
     FM022300 30009KT P6SM SKC
     FM030400 31005KT P6SM SKC=

USA.gov is the U.S. government's official web portal to all federal, state and local government web resources and services.